createdAt,value
2023-02-11T00:00:14.692Z,-0.02
2023-02-11T00:02:29.568Z,-0.00
2023-02-11T00:04:20.909Z,0.01
2023-02-11T00:06:12.611Z,0.02
2023-02-11T00:08:04.557Z,0.04
2023-02-11T00:09:56.121Z,0.05
2023-02-11T00:11:47.213Z,0.07
2023-02-11T00:13:38.512Z,0.09
2023-02-11T00:15:29.806Z,0.09
2023-02-11T00:17:21.980Z,0.11
2023-02-11T00:19:13.363Z,0.12
2023-02-11T00:21:09.251Z,0.13
2023-02-11T00:23:00.449Z,0.14
2023-02-11T00:24:51.939Z,0.15
2023-02-11T00:26:43.556Z,0.17
2023-02-11T00:28:35.022Z,0.18
2023-02-11T00:30:26.732Z,0.19
2023-02-11T00:32:18.145Z,0.18
2023-02-11T00:34:09.503Z,0.19
2023-02-11T00:36:07.625Z,0.19
2023-02-11T00:37:58.955Z,0.19
2023-02-11T00:39:50.260Z,0.20
2023-02-11T00:41:41.631Z,0.21
2023-02-11T00:43:32.663Z,0.21
2023-02-11T00:45:24.024Z,0.21
2023-02-11T00:47:15.536Z,0.21
2023-02-11T00:49:07.025Z,0.20
2023-02-11T00:50:58.277Z,0.20
2023-02-11T00:52:49.823Z,0.21
2023-02-11T00:54:41.182Z,0.22
2023-02-11T00:56:32.434Z,0.22
2023-02-11T00:58:23.826Z,0.22
2023-02-11T01:00:15.501Z,0.22
2023-02-11T01:02:06.509Z,0.22
2023-02-11T01:03:57.974Z,0.22
2023-02-11T01:05:49.803Z,0.20
2023-02-11T01:07:41.417Z,0.19
2023-02-11T01:09:32.757Z,0.17
2023-02-11T01:11:24.428Z,0.17
2023-02-11T01:13:15.983Z,0.16
2023-02-11T01:15:08.048Z,0.14
2023-02-11T01:16:59.230Z,0.14
2023-02-11T01:18:50.649Z,0.14
2023-02-11T01:20:42.089Z,0.14
2023-02-11T01:22:34.444Z,0.12
2023-02-11T01:24:25.837Z,0.12
2023-02-11T01:26:17.044Z,0.11
2023-02-11T01:28:16.069Z,0.09
2023-02-11T01:30:08.730Z,0.08
2023-02-11T01:32:01.251Z,0.08
2023-02-11T01:33:53.028Z,0.09
2023-02-11T01:35:44.661Z,0.10
2023-02-11T01:37:36.360Z,0.12
2023-02-11T01:39:27.791Z,0.15
2023-02-11T01:41:19.567Z,0.15
2023-02-11T01:43:11.675Z,0.16
2023-02-11T01:45:41.462Z,0.16
2023-02-11T01:47:33.075Z,0.17
2023-02-11T01:49:45.853Z,0.18
2023-02-11T01:51:44.391Z,0.18
2023-02-11T01:53:55.539Z,0.19
2023-02-11T01:56:15.953Z,0.20
2023-02-11T01:58:07.596Z,0.21
2023-02-11T02:00:10.818Z,0.23
2023-02-11T02:02:07.317Z,0.24
2023-02-11T02:04:01.192Z,0.25
2023-02-11T02:06:03.174Z,0.26
2023-02-11T02:08:03.302Z,0.26
2023-02-11T02:09:59.395Z,0.27
2023-02-11T02:11:51.101Z,0.27
2023-02-11T02:13:42.436Z,0.26
2023-02-11T02:15:35.078Z,0.24
2023-02-11T02:17:38.746Z,0.22
2023-02-11T02:20:02.448Z,0.22
2023-02-11T02:22:24.705Z,0.20
2023-02-11T02:24:50.643Z,0.21
2023-02-11T02:27:02.982Z,0.21
2023-02-11T02:29:29.618Z,0.22
2023-02-11T02:31:42.255Z,0.25
2023-02-11T02:33:40.680Z,0.26
2023-02-11T02:35:48.010Z,0.28
2023-02-11T02:37:48.610Z,0.30
2023-02-11T02:39:40.248Z,0.32
2023-02-11T02:41:33.966Z,0.33
2023-02-11T02:43:27.214Z,0.35
2023-02-11T02:45:18.931Z,0.37
2023-02-11T02:47:10.560Z,0.39
2023-02-11T02:49:02.051Z,0.41
2023-02-11T02:51:18.967Z,0.43
2023-02-11T02:53:33.097Z,0.44
2023-02-11T02:55:44.507Z,0.43
2023-02-11T02:57:48.800Z,0.44
2023-02-11T02:59:53.595Z,0.44
2023-02-11T03:02:00.832Z,0.44
2023-02-11T03:04:04.058Z,0.44
2023-02-11T03:06:06.145Z,0.44
2023-02-11T03:08:13.801Z,0.43
2023-02-11T03:10:13.634Z,0.42
2023-02-11T03:12:06.252Z,0.40
2023-02-11T03:13:58.100Z,0.38
2023-02-11T03:15:52.931Z,0.37
2023-02-11T03:17:47.116Z,0.37
2023-02-11T03:19:41.548Z,0.37
2023-02-11T03:21:33.386Z,0.38
2023-02-11T03:23:40.708Z,0.39
2023-02-11T03:25:38.303Z,0.39
2023-02-11T03:27:41.859Z,0.41
2023-02-11T03:29:54.267Z,0.41
2023-02-11T03:31:56.838Z,0.41
2023-02-11T03:34:08.834Z,0.42
2023-02-11T03:36:06.960Z,0.40
2023-02-11T03:38:02.716Z,0.40
2023-02-11T03:39:57.701Z,0.39
2023-02-11T03:41:50.139Z,0.38
2023-02-11T03:43:47.635Z,0.37
2023-02-11T03:45:39.823Z,0.38
2023-02-11T03:47:32.981Z,0.37
2023-02-11T03:49:24.348Z,0.39
2023-02-11T03:51:16.316Z,0.38
2023-02-11T03:53:08.196Z,0.38
2023-02-11T03:55:00.816Z,0.39
2023-02-11T03:56:54.814Z,0.39
2023-02-11T03:58:46.623Z,0.40
2023-02-11T04:00:41.010Z,0.43
2023-02-11T04:02:35.024Z,0.45
2023-02-11T04:04:26.574Z,0.47
2023-02-11T04:06:18.063Z,0.49
2023-02-11T04:08:09.608Z,0.50
2023-02-11T04:10:01.093Z,0.51
2023-02-11T04:11:52.176Z,0.52
2023-02-11T04:13:43.503Z,0.53
2023-02-11T04:15:34.547Z,0.54
2023-02-11T04:17:25.776Z,0.54
2023-02-11T04:19:17.163Z,0.54
2023-02-11T04:21:09.292Z,0.54
2023-02-11T04:23:01.020Z,0.52
2023-02-11T04:24:52.465Z,0.51
2023-02-11T04:26:44.065Z,0.48
2023-02-11T04:28:36.360Z,0.47
2023-02-11T04:30:28.724Z,0.46
2023-02-11T04:32:20.058Z,0.47
2023-02-11T04:34:11.304Z,0.47
2023-02-11T04:36:02.332Z,0.47
2023-02-11T04:37:53.862Z,0.46
2023-02-11T04:39:45.424Z,0.46
2023-02-11T04:41:36.590Z,0.46
2023-02-11T04:43:27.988Z,0.45
2023-02-11T04:45:19.707Z,0.45
2023-02-11T04:47:13.642Z,0.43
2023-02-11T04:49:04.910Z,0.42
2023-02-11T04:50:56.314Z,0.41
2023-02-11T04:52:47.515Z,0.40
2023-02-11T04:54:39.446Z,0.40
2023-02-11T04:56:30.817Z,0.42
2023-02-11T04:58:22.237Z,0.44
2023-02-11T05:00:14.097Z,0.45
2023-02-11T05:02:05.761Z,0.48
2023-02-11T05:03:57.288Z,0.51
2023-02-11T05:05:48.631Z,0.52
2023-02-11T05:07:40.443Z,0.54
2023-02-11T05:09:31.801Z,0.54
2023-02-11T05:11:24.908Z,0.55
2023-02-11T05:13:16.456Z,0.56
2023-02-11T05:15:08.030Z,0.56
2023-02-11T05:16:59.361Z,0.57
2023-02-11T05:18:52.626Z,0.58
2023-02-11T05:20:44.550Z,0.58
2023-02-11T05:22:35.811Z,0.59
2023-02-11T05:24:27.303Z,0.59
2023-02-11T05:26:19.031Z,0.60
2023-02-11T05:28:10.547Z,0.62
2023-02-11T05:30:01.797Z,0.64
2023-02-11T05:31:53.143Z,0.67
2023-02-11T05:33:44.602Z,0.71
2023-02-11T05:35:36.246Z,0.73
2023-02-11T05:37:27.705Z,0.75
2023-02-11T05:39:19.283Z,0.77
2023-02-11T05:41:11.455Z,0.79
2023-02-11T05:43:02.757Z,0.80
2023-02-11T05:44:54.257Z,0.80
2023-02-11T05:46:45.752Z,0.80
2023-02-11T05:48:37.265Z,0.80
2023-02-11T05:50:28.705Z,0.81
2023-02-11T05:52:21.266Z,0.82
2023-02-11T05:54:12.479Z,0.84
2023-02-11T05:56:03.656Z,0.86
2023-02-11T05:57:55.137Z,0.88
2023-02-11T05:59:46.514Z,0.88
2023-02-11T06:01:37.684Z,0.88
2023-02-11T06:03:29.129Z,0.90
2023-02-11T06:05:20.870Z,0.90
2023-02-11T06:07:11.906Z,0.91
2023-02-11T06:09:04.055Z,0.92
2023-02-11T06:10:55.354Z,0.94
2023-02-11T06:12:46.475Z,0.96
2023-02-11T06:14:37.569Z,0.98
2023-02-11T06:16:29.088Z,1.01
2023-02-11T06:18:20.648Z,1.03
2023-02-11T06:20:12.364Z,1.06
2023-02-11T06:22:04.064Z,1.08
2023-02-11T06:23:55.290Z,1.11
2023-02-11T06:25:46.563Z,1.13
2023-02-11T06:27:39.009Z,1.15
2023-02-11T06:29:30.331Z,1.17
2023-02-11T06:31:21.897Z,1.18
2023-02-11T06:33:13.122Z,1.19
2023-02-11T06:35:04.569Z,1.22
2023-02-11T06:36:56.024Z,1.25
2023-02-11T06:38:47.911Z,1.26
2023-02-11T06:40:39.470Z,1.29
2023-02-11T06:42:30.769Z,1.31
2023-02-11T06:44:22.263Z,1.32
2023-02-11T06:46:14.309Z,1.35
2023-02-11T06:48:05.792Z,1.38
2023-02-11T06:49:56.965Z,1.40
2023-02-11T06:51:48.542Z,1.43
2023-02-11T06:53:42.519Z,1.46
2023-02-11T06:55:35.387Z,1.49
2023-02-11T06:57:26.520Z,1.51
2023-02-11T06:59:20.668Z,1.54
2023-02-11T07:01:14.188Z,1.56
2023-02-11T07:03:05.530Z,1.58
2023-02-11T07:04:57.034Z,1.61
2023-02-11T07:06:48.143Z,1.63
2023-02-11T07:08:40.559Z,1.66
2023-02-11T07:10:31.919Z,1.68
2023-02-11T07:12:23.362Z,1.71
2023-02-11T07:14:14.919Z,1.72
2023-02-11T07:16:07.973Z,1.76
2023-02-11T07:17:59.707Z,1.79
2023-02-11T07:19:50.664Z,1.82
2023-02-11T07:21:41.971Z,1.86
2023-02-11T07:23:34.134Z,1.90
2023-02-11T07:25:25.625Z,1.95
2023-02-11T07:27:17.312Z,2.00
2023-02-11T07:29:08.912Z,2.03
2023-02-11T07:31:00.598Z,2.08
2023-02-11T07:32:51.931Z,2.11
2023-02-11T07:34:43.030Z,2.15
2023-02-11T07:36:34.648Z,2.18
2023-02-11T07:38:26.132Z,2.22
2023-02-11T07:40:17.641Z,2.25
2023-02-11T07:42:08.848Z,2.30
2023-02-11T07:44:03.250Z,2.35
2023-02-11T07:45:54.573Z,2.40
2023-02-11T07:47:45.828Z,2.45
2023-02-11T07:49:37.380Z,2.49
2023-02-11T07:51:30.289Z,2.54
2023-02-11T07:53:21.760Z,2.58
2023-02-11T07:55:13.321Z,2.64
2023-02-11T07:57:04.804Z,2.72
2023-02-11T07:59:00.423Z,2.82
2023-02-11T08:00:52.053Z,2.91
2023-02-11T08:02:43.677Z,3.01
2023-02-11T08:04:35.459Z,3.08
2023-02-11T08:06:29.134Z,3.14
2023-02-11T08:08:20.273Z,3.20
2023-02-11T08:10:11.810Z,3.23
2023-02-11T08:12:03.099Z,3.27
2023-02-11T08:13:54.815Z,3.30
2023-02-11T08:15:46.179Z,3.34
2023-02-11T08:17:37.609Z,3.37
2023-02-11T08:19:29.400Z,3.40
2023-02-11T08:21:21.169Z,3.42
2023-02-11T08:23:12.327Z,3.45
2023-02-11T08:25:04.503Z,3.47
2023-02-11T08:26:55.803Z,3.47
2023-02-11T08:28:48.088Z,3.49
2023-02-11T08:30:39.587Z,3.48
2023-02-11T08:32:31.187Z,3.50
2023-02-11T08:34:22.798Z,3.51
2023-02-11T08:36:16.953Z,3.54
2023-02-11T08:38:09.013Z,3.56
2023-02-11T08:40:00.257Z,3.58
2023-02-11T08:41:54.810Z,3.59
2023-02-11T08:43:46.400Z,3.57
2023-02-11T08:45:37.672Z,3.58
2023-02-11T08:47:29.081Z,3.58
2023-02-11T08:49:20.988Z,3.57
2023-02-11T08:51:27.571Z,3.58
2023-02-11T08:53:18.963Z,3.60
2023-02-11T08:55:10.569Z,3.63
2023-02-11T08:57:02.097Z,3.63
2023-02-11T08:58:54.359Z,3.63
2023-02-11T09:00:46.312Z,3.66
2023-02-11T09:02:37.798Z,3.72
2023-02-11T09:04:29.632Z,3.81
2023-02-11T09:06:22.507Z,3.90
2023-02-11T09:08:14.565Z,4.04
2023-02-11T09:10:06.410Z,4.20
2023-02-11T09:11:57.911Z,4.34
2023-02-11T09:13:50.969Z,4.40
2023-02-11T09:15:46.954Z,4.42
2023-02-11T09:17:38.461Z,4.41
2023-02-11T09:19:29.748Z,4.39
2023-02-11T09:21:21.411Z,4.40
2023-02-11T09:23:12.628Z,4.42
2023-02-11T09:25:03.793Z,4.44
2023-02-11T09:26:55.075Z,4.47
2023-02-11T09:28:47.165Z,4.57
2023-02-11T09:30:39.055Z,4.60
2023-02-11T09:32:30.400Z,4.64
2023-02-11T09:34:21.737Z,4.71
2023-02-11T09:36:14.492Z,4.82
2023-02-11T09:38:05.926Z,4.89
2023-02-11T09:39:57.209Z,4.93
2023-02-11T09:41:55.354Z,4.98
2023-02-11T09:43:47.250Z,5.01
2023-02-11T09:45:38.921Z,5.05
2023-02-11T09:47:35.361Z,5.08
2023-02-11T09:49:49.233Z,5.15
2023-02-11T09:51:52.045Z,5.16
2023-02-11T09:53:43.607Z,5.13
2023-02-11T09:55:39.470Z,5.13
2023-02-11T09:57:35.718Z,5.17
2023-02-11T09:59:26.942Z,5.23
2023-02-11T10:01:40.424Z,5.25
2023-02-11T10:03:34.248Z,5.24
2023-02-11T10:05:35.398Z,5.19
2023-02-11T10:07:43.296Z,5.17
2023-02-11T10:09:53.750Z,5.14
2023-02-11T10:11:57.031Z,5.11
2023-02-11T10:14:13.107Z,5.10
2023-02-11T10:16:18.720Z,5.09
2023-02-11T10:18:12.906Z,5.10
2023-02-11T10:20:26.704Z,5.11
2023-02-11T10:22:25.830Z,5.12
2023-02-11T10:24:17.709Z,5.12
2023-02-11T10:26:16.900Z,5.13
2023-02-11T10:28:17.026Z,5.16
2023-02-11T10:30:23.514Z,5.22
2023-02-11T10:32:46.886Z,5.27
2023-02-11T10:34:41.518Z,5.30
2023-02-11T10:36:41.427Z,5.33
2023-02-11T10:38:33.889Z,5.34
2023-02-11T10:40:27.082Z,5.36
2023-02-11T10:42:18.626Z,5.40
2023-02-11T10:44:22.160Z,5.41
2023-02-11T10:46:23.121Z,5.42
2023-02-11T10:48:36.260Z,5.39
2023-02-11T10:50:30.194Z,5.38
2023-02-11T10:52:26.372Z,5.38
2023-02-11T10:54:21.219Z,5.35
2023-02-11T10:56:20.994Z,5.33
2023-02-11T10:58:24.750Z,5.30
2023-02-11T11:00:32.413Z,5.26
2023-02-11T11:02:32.146Z,5.23
2023-02-11T11:04:45.239Z,5.20
2023-02-11T11:06:36.611Z,5.17
2023-02-11T11:08:41.958Z,5.16
2023-02-11T11:10:45.894Z,5.14
2023-02-11T11:12:46.380Z,5.12
2023-02-11T11:14:38.100Z,5.10
2023-02-11T11:16:34.066Z,5.08
2023-02-11T11:18:25.326Z,5.07
2023-02-11T11:20:20.058Z,5.07
2023-02-11T11:22:21.379Z,5.08
2023-02-11T11:24:19.060Z,5.11
2023-02-11T11:26:14.383Z,5.14
2023-02-11T11:28:05.722Z,5.19
2023-02-11T11:29:57.331Z,5.24
2023-02-11T11:31:52.393Z,5.27
2023-02-11T11:33:46.879Z,5.30
2023-02-11T11:35:38.506Z,5.32
2023-02-11T11:37:33.956Z,5.35
2023-02-11T11:39:28.801Z,5.40
2023-02-11T11:41:26.818Z,5.43
2023-02-11T11:43:23.083Z,5.45
2023-02-11T11:45:19.647Z,5.48
2023-02-11T11:47:10.920Z,5.47
2023-02-11T11:49:25.912Z,5.47
2023-02-11T11:51:17.361Z,5.44
2023-02-11T11:53:29.347Z,5.43
2023-02-11T11:55:25.448Z,5.40
2023-02-11T11:57:19.721Z,5.41
2023-02-11T11:59:14.892Z,5.44
2023-02-11T12:01:09.116Z,5.46
2023-02-11T12:03:21.658Z,5.47
2023-02-11T12:05:36.486Z,5.45
2023-02-11T12:07:50.328Z,5.42
2023-02-11T12:09:54.040Z,5.38
2023-02-11T12:12:11.469Z,5.35
2023-02-11T12:14:20.832Z,5.33
2023-02-11T12:16:34.674Z,5.34
2023-02-11T12:18:36.132Z,5.34
2023-02-11T12:21:09.631Z,5.34
2023-02-11T12:23:06.815Z,5.33
2023-02-11T12:25:26.188Z,5.34
2023-02-11T12:27:42.175Z,5.40
2023-02-11T12:29:51.819Z,5.45
2023-02-11T12:31:52.140Z,5.49
2023-02-11T12:34:10.938Z,5.52
2023-02-11T12:36:11.759Z,5.56
2023-02-11T12:38:15.892Z,5.58
2023-02-11T12:40:12.947Z,5.57
2023-02-11T12:42:35.489Z,5.55
2023-02-11T12:44:45.559Z,5.50
2023-02-11T12:46:51.284Z,5.46
2023-02-11T12:48:56.969Z,5.45
2023-02-11T12:51:06.769Z,5.45
2023-02-11T12:53:08.779Z,5.43
2023-02-11T12:55:23.655Z,5.40
2023-02-11T12:57:21.468Z,5.39
2023-02-11T12:59:18.385Z,5.38
2023-02-11T13:01:16.265Z,5.38
2023-02-11T13:03:13.119Z,5.39
2023-02-11T13:05:26.401Z,5.39
2023-02-11T13:07:31.737Z,5.39
2023-02-11T13:09:27.222Z,5.39
2023-02-11T13:11:28.800Z,5.39
2023-02-11T13:13:27.662Z,5.39
2023-02-11T13:15:19.345Z,5.39
2023-02-11T13:17:21.056Z,5.40
2023-02-11T13:19:23.797Z,5.40
2023-02-11T13:21:14.974Z,5.39
2023-02-11T13:23:15.812Z,5.39
2023-02-11T13:25:19.432Z,5.38
2023-02-11T13:27:29.777Z,5.36
2023-02-11T13:29:21.316Z,5.34
2023-02-11T13:31:14.799Z,5.34
2023-02-11T13:33:17.809Z,5.33
2023-02-11T13:35:29.362Z,5.33
2023-02-11T13:37:49.634Z,5.29
2023-02-11T13:39:41.178Z,5.27
2023-02-11T13:41:40.003Z,5.27
2023-02-11T13:43:33.906Z,5.26
2023-02-11T13:45:44.052Z,5.27
2023-02-11T13:47:37.637Z,5.26
2023-02-11T13:49:38.283Z,5.26
2023-02-11T13:51:40.690Z,5.26
2023-02-11T13:53:52.932Z,5.26
2023-02-11T13:55:46.557Z,5.26
2023-02-11T13:57:39.655Z,5.27
2023-02-11T13:59:33.078Z,5.27
2023-02-11T14:02:07.907Z,5.26
2023-02-11T14:04:38.117Z,5.25
2023-02-11T14:07:04.954Z,5.25
2023-02-11T14:09:14.151Z,5.24
2023-02-11T14:11:23.503Z,5.23
2023-02-11T14:13:33.634Z,5.22
2023-02-11T14:15:27.079Z,5.23
2023-02-11T14:17:18.944Z,5.21
2023-02-11T14:19:10.276Z,5.18
2023-02-11T14:21:13.579Z,5.17
2023-02-11T14:23:05.970Z,5.17
2023-02-11T14:24:59.872Z,5.16
2023-02-11T14:27:11.572Z,5.15
2023-02-11T14:29:24.180Z,5.14
2023-02-11T14:31:21.787Z,5.13
2023-02-11T14:33:29.357Z,5.13
2023-02-11T14:35:29.421Z,5.10
2023-02-11T14:37:50.616Z,5.08
2023-02-11T14:40:03.651Z,5.06
2023-02-11T14:41:55.746Z,5.04
2023-02-11T14:43:49.948Z,5.03
2023-02-11T14:45:43.637Z,5.02
2023-02-11T14:47:41.856Z,5.01
2023-02-11T14:49:36.545Z,4.99
2023-02-11T14:51:34.895Z,4.97
2023-02-11T14:53:28.362Z,4.96
2023-02-11T14:55:52.463Z,4.95
2023-02-11T14:57:45.685Z,4.93
2023-02-11T14:59:37.343Z,4.90
2023-02-11T15:01:35.208Z,4.88
2023-02-11T15:03:37.897Z,4.86
2023-02-11T15:05:29.804Z,4.83
2023-02-11T15:07:21.861Z,4.79
2023-02-11T15:09:17.134Z,4.76
2023-02-11T15:11:12.473Z,4.72
2023-02-11T15:13:04.975Z,4.69
2023-02-11T15:14:59.261Z,4.67
2023-02-11T15:16:53.587Z,4.63
2023-02-11T15:18:48.416Z,4.59
2023-02-11T15:20:41.162Z,4.56
2023-02-11T15:22:36.500Z,4.53
2023-02-11T15:24:31.007Z,4.49
2023-02-11T15:26:22.554Z,4.46
2023-02-11T15:28:22.673Z,4.45
2023-02-11T15:30:22.760Z,4.42
2023-02-11T15:32:16.835Z,4.40
2023-02-11T15:34:08.944Z,4.37
2023-02-11T15:36:02.079Z,4.37
2023-02-11T15:37:53.455Z,4.37
2023-02-11T15:39:45.139Z,4.36
2023-02-11T15:41:38.355Z,4.34
2023-02-11T15:43:48.995Z,4.33
2023-02-11T15:45:43.266Z,4.31
2023-02-11T15:47:35.427Z,4.30
2023-02-11T15:49:27.280Z,4.30
2023-02-11T15:51:25.317Z,4.30
2023-02-11T15:53:25.975Z,4.30
2023-02-11T15:55:17.475Z,4.29
2023-02-11T15:57:10.141Z,4.28
2023-02-11T15:59:20.315Z,4.28
2023-02-11T16:01:12.779Z,4.29
2023-02-11T16:03:04.668Z,4.29
2023-02-11T16:04:58.027Z,4.27
2023-02-11T16:06:50.673Z,4.27
2023-02-11T16:08:43.155Z,4.26
2023-02-11T16:10:36.146Z,4.27
2023-02-11T16:12:27.532Z,4.27
2023-02-11T16:14:29.421Z,4.27
2023-02-11T16:16:25.322Z,4.26
2023-02-11T16:18:37.736Z,4.27
2023-02-11T16:20:30.153Z,4.25
2023-02-11T16:22:26.471Z,4.24
2023-02-11T16:24:25.150Z,4.24
2023-02-11T16:26:32.877Z,4.24
2023-02-11T16:28:24.187Z,4.25
2023-02-11T16:30:29.215Z,4.27
2023-02-11T16:32:26.092Z,4.27
2023-02-11T16:34:22.698Z,4.28
2023-02-11T16:36:17.252Z,4.28
2023-02-11T16:38:09.013Z,4.28
2023-02-11T16:40:00.151Z,4.29
2023-02-11T16:41:52.371Z,4.31
2023-02-11T16:43:43.668Z,4.31
2023-02-11T16:45:38.511Z,4.34
2023-02-11T16:47:31.164Z,4.35
2023-02-11T16:49:36.259Z,4.37
2023-02-11T16:51:27.769Z,4.38
2023-02-11T16:53:22.837Z,4.37
2023-02-11T16:55:15.322Z,4.37
2023-02-11T16:57:14.211Z,4.39
2023-02-11T16:59:05.781Z,4.40
2023-02-11T17:00:57.563Z,4.42
2023-02-11T17:02:49.500Z,4.43
2023-02-11T17:04:41.333Z,4.43
2023-02-11T17:06:33.863Z,4.44
2023-02-11T17:08:25.605Z,4.46
2023-02-11T17:10:22.509Z,4.47
2023-02-11T17:12:14.012Z,4.48
2023-02-11T17:14:05.665Z,4.50
2023-02-11T17:15:57.310Z,4.52
2023-02-11T17:17:48.699Z,4.53
2023-02-11T17:19:39.988Z,4.54
2023-02-11T17:21:32.014Z,4.57
2023-02-11T17:23:23.467Z,4.57
2023-02-11T17:25:14.847Z,4.57
2023-02-11T17:27:06.201Z,4.57
2023-02-11T17:28:57.530Z,4.58
2023-02-11T17:30:48.587Z,4.58
2023-02-11T17:32:39.738Z,4.59
2023-02-11T17:34:32.349Z,4.62
2023-02-11T17:36:24.040Z,4.63
2023-02-11T17:38:15.860Z,4.66
2023-02-11T17:40:08.371Z,4.67
2023-02-11T17:41:59.652Z,4.66
2023-02-11T17:43:50.854Z,4.67
2023-02-11T17:45:42.497Z,4.66
2023-02-11T17:47:34.223Z,4.66
2023-02-11T17:49:25.885Z,4.64
2023-02-11T17:51:26.317Z,4.64
2023-02-11T17:53:17.903Z,4.63
2023-02-11T17:55:09.204Z,4.63
2023-02-11T17:57:00.997Z,4.63
2023-02-11T17:58:53.260Z,4.63
2023-02-11T18:00:45.404Z,4.62
2023-02-11T18:02:36.807Z,4.62
2023-02-11T18:04:29.063Z,4.62
2023-02-11T18:06:21.645Z,4.61
2023-02-11T18:08:13.497Z,4.61
2023-02-11T18:10:06.963Z,4.60
2023-02-11T18:11:58.955Z,4.60
2023-02-11T18:13:54.418Z,4.61
2023-02-11T18:15:46.084Z,4.61
2023-02-11T18:17:37.457Z,4.60
2023-02-11T18:19:30.616Z,4.61
2023-02-11T18:21:22.497Z,4.61
2023-02-11T18:23:13.948Z,4.62
2023-02-11T18:25:07.291Z,4.61
2023-02-11T18:26:58.748Z,4.62
2023-02-11T18:28:49.887Z,4.63
2023-02-11T18:30:41.512Z,4.63
2023-02-11T18:32:33.024Z,4.62
2023-02-11T18:34:24.706Z,4.62
2023-02-11T18:36:16.835Z,4.61
2023-02-11T18:38:08.869Z,4.61
2023-02-11T18:40:00.466Z,4.60
2023-02-11T18:41:55.027Z,4.59
2023-02-11T18:43:46.693Z,4.58
2023-02-11T18:45:42.983Z,4.58
2023-02-11T18:47:34.414Z,4.57
2023-02-11T18:49:25.936Z,4.57
2023-02-11T18:51:21.267Z,4.55
2023-02-11T18:53:15.673Z,4.54
2023-02-11T18:55:08.094Z,4.54
2023-02-11T18:56:59.480Z,4.53
2023-02-11T18:58:52.069Z,4.51
2023-02-11T19:00:46.104Z,4.49
2023-02-11T19:02:37.613Z,4.48
2023-02-11T19:04:29.014Z,4.47
2023-02-11T19:06:24.952Z,4.47
2023-02-11T19:08:17.173Z,4.47
2023-02-11T19:10:08.904Z,4.46
2023-02-11T19:12:01.950Z,4.44
2023-02-11T19:13:53.080Z,4.43
2023-02-11T19:15:45.872Z,4.42
2023-02-11T19:17:38.283Z,4.43
2023-02-11T19:19:31.413Z,4.42
2023-02-11T19:21:22.883Z,4.43
2023-02-11T19:23:14.368Z,4.44
2023-02-11T19:25:07.262Z,4.46
2023-02-11T19:27:00.757Z,4.47
2023-02-11T19:28:52.080Z,4.48
2023-02-11T19:30:43.826Z,4.48
2023-02-11T19:32:34.916Z,4.49
2023-02-11T19:34:26.496Z,4.50
2023-02-11T19:36:18.634Z,4.51
2023-02-11T19:38:10.182Z,4.51
2023-02-11T19:40:01.297Z,4.52
2023-02-11T19:41:53.526Z,4.55
2023-02-11T19:43:47.056Z,4.55
2023-02-11T19:45:38.247Z,4.57
2023-02-11T19:47:29.810Z,4.58
2023-02-11T19:49:24.531Z,4.57
2023-02-11T19:51:15.946Z,4.57
2023-02-11T19:53:07.533Z,4.57
2023-02-11T19:54:59.807Z,4.57
2023-02-11T19:56:51.238Z,4.57
2023-02-11T19:58:43.709Z,4.57
2023-02-11T20:00:34.952Z,4.58
2023-02-11T20:02:26.066Z,4.58
2023-02-11T20:04:17.526Z,4.58
2023-02-11T20:06:17.122Z,4.59
2023-02-11T20:08:08.344Z,4.60
2023-02-11T20:09:59.939Z,4.61
2023-02-11T20:11:51.600Z,4.61
2023-02-11T20:13:43.694Z,4.61
2023-02-11T20:15:35.098Z,4.63
2023-02-11T20:17:26.730Z,4.63
2023-02-11T20:19:21.524Z,4.64
2023-02-11T20:21:15.334Z,4.65
2023-02-11T20:23:06.765Z,4.66
2023-02-11T20:24:57.842Z,4.69
2023-02-11T20:26:49.750Z,4.72
2023-02-11T20:28:41.352Z,4.74
2023-02-11T20:30:32.858Z,4.77
2023-02-11T20:32:24.252Z,4.78
2023-02-11T20:34:17.615Z,4.80
2023-02-11T20:36:21.148Z,4.84
2023-02-11T20:38:12.712Z,4.87
2023-02-11T20:40:06.052Z,4.89
2023-02-11T20:41:58.162Z,4.89
2023-02-11T20:43:53.180Z,4.89
2023-02-11T20:45:45.565Z,4.89
2023-02-11T20:47:37.794Z,4.88
2023-02-11T20:49:29.111Z,4.89
2023-02-11T20:51:23.951Z,4.90
2023-02-11T20:53:15.419Z,4.91
2023-02-11T20:55:06.638Z,4.93
2023-02-11T20:56:58.404Z,4.94
2023-02-11T20:58:50.101Z,4.96
2023-02-11T21:00:41.411Z,4.96
2023-02-11T21:02:32.437Z,4.96
2023-02-11T21:04:27.620Z,4.97
2023-02-11T21:06:20.097Z,4.97
2023-02-11T21:08:11.645Z,4.97
2023-02-11T21:10:03.683Z,4.95
2023-02-11T21:11:55.535Z,4.93
2023-02-11T21:13:46.818Z,4.91
2023-02-11T21:15:38.130Z,4.91
2023-02-11T21:17:29.816Z,4.90
2023-02-11T21:19:21.367Z,4.91
2023-02-11T21:21:13.047Z,4.92
2023-02-11T21:23:04.676Z,4.94
2023-02-11T21:24:56.241Z,4.94
2023-02-11T21:26:47.273Z,4.95
2023-02-11T21:28:40.970Z,4.95
2023-02-11T21:30:32.721Z,4.93
2023-02-11T21:32:24.145Z,4.92
2023-02-11T21:34:16.226Z,4.91
2023-02-11T21:36:08.048Z,4.89
2023-02-11T21:37:59.594Z,4.89
2023-02-11T21:39:51.082Z,4.89
2023-02-11T21:41:42.437Z,4.90
2023-02-11T21:43:34.149Z,4.91
2023-02-11T21:45:25.755Z,4.92
2023-02-11T21:47:17.135Z,4.93
2023-02-11T21:49:08.383Z,4.95
2023-02-11T21:51:04.634Z,4.96
2023-02-11T21:52:55.996Z,4.96
2023-02-11T21:54:49.894Z,4.97
2023-02-11T21:56:41.555Z,4.98
2023-02-11T21:58:32.965Z,4.99
2023-02-11T22:00:24.590Z,5.01
2023-02-11T22:02:16.075Z,5.02
2023-02-11T22:04:07.380Z,5.03
2023-02-11T22:05:58.981Z,5.03
2023-02-11T22:07:50.308Z,5.03
2023-02-11T22:09:43.904Z,5.04
2023-02-11T22:11:35.860Z,5.02
2023-02-11T22:13:27.954Z,5.02
2023-02-11T22:15:19.778Z,5.01
2023-02-11T22:17:11.207Z,4.99
2023-02-11T22:19:02.571Z,4.98
2023-02-11T22:21:05.361Z,4.96
2023-02-11T22:22:56.701Z,4.95
2023-02-11T22:24:48.043Z,4.94
2023-02-11T22:26:39.661Z,4.92
2023-02-11T22:28:31.319Z,4.93
2023-02-11T22:30:22.759Z,4.93
2023-02-11T22:32:14.652Z,4.92
2023-02-11T22:34:06.486Z,4.92
2023-02-11T22:36:02.225Z,4.91
2023-02-11T22:37:53.411Z,4.91
2023-02-11T22:39:44.810Z,4.91
2023-02-11T22:41:36.018Z,4.91
2023-02-11T22:43:27.987Z,4.90
2023-02-11T22:45:19.369Z,4.89
2023-02-11T22:47:10.824Z,4.88
2023-02-11T22:49:02.348Z,4.87
2023-02-11T22:50:53.642Z,4.86
2023-02-11T22:52:44.990Z,4.84
2023-02-11T22:54:36.711Z,4.84
2023-02-11T22:56:29.486Z,4.82
2023-02-11T22:58:20.574Z,4.80
2023-02-11T23:00:12.605Z,4.79
2023-02-11T23:02:04.140Z,4.78
2023-02-11T23:03:55.573Z,4.76
2023-02-11T23:05:47.311Z,4.74
2023-02-11T23:07:39.009Z,4.71
2023-02-11T23:09:30.496Z,4.70
2023-02-11T23:11:24.121Z,4.70
2023-02-11T23:13:15.793Z,4.70
2023-02-11T23:15:07.515Z,4.67
2023-02-11T23:16:59.151Z,4.66
2023-02-11T23:18:51.024Z,4.66
2023-02-11T23:20:43.831Z,4.66
2023-02-11T23:22:35.310Z,4.65
2023-02-11T23:24:26.688Z,4.64
2023-02-11T23:26:18.430Z,4.64
2023-02-11T23:28:11.873Z,4.65
2023-02-11T23:30:04.589Z,4.64
2023-02-11T23:31:58.700Z,4.64
2023-02-11T23:33:50.852Z,4.65
2023-02-11T23:35:41.864Z,4.64
2023-02-11T23:37:33.261Z,4.65
2023-02-11T23:39:24.679Z,4.66
2023-02-11T23:41:16.652Z,4.68
2023-02-11T23:43:08.471Z,4.69
2023-02-11T23:45:01.006Z,4.69
2023-02-11T23:46:52.178Z,4.70
2023-02-11T23:48:43.631Z,4.71
2023-02-11T23:50:37.352Z,4.73
2023-02-11T23:52:28.848Z,4.75
2023-02-11T23:54:20.361Z,4.77
2023-02-11T23:56:16.458Z,4.78
2023-02-11T23:58:08.369Z,4.80
2023-02-11T23:59:59.874Z,4.81
